createdAt,value
2023-05-21T00:03:05.903Z,22.08
2023-05-21T00:08:08.930Z,22.88
2023-05-21T00:13:13.018Z,21.73
2023-05-21T00:18:16.213Z,20.75
2023-05-21T00:23:19.389Z,21.92
2023-05-21T00:28:23.385Z,21.15
2023-05-21T00:33:29.066Z,22.38
2023-05-21T00:38:32.905Z,23.52
2023-05-21T00:43:40.233Z,23.17
2023-05-21T00:48:43.405Z,22.85
2023-05-21T00:53:46.660Z,21.27
2023-05-21T00:58:51.989Z,23.38
2023-05-21T01:03:57.637Z,23.92
2023-05-21T01:09:00.442Z,23.48
2023-05-21T01:14:09.315Z,23.73
2023-05-21T01:19:16.414Z,22.60
2023-05-21T01:24:20.678Z,23.10
2023-05-21T01:29:23.436Z,24.02
2023-05-21T01:34:31.219Z,23.67
2023-05-21T01:39:39.388Z,23.20
2023-05-21T01:44:42.584Z,22.35
2023-05-21T01:49:45.936Z,23.27
2023-05-21T01:54:51.328Z,23.27
2023-05-21T01:59:54.717Z,22.30
2023-05-21T02:04:57.389Z,22.67
2023-05-21T02:10:01.430Z,23.25
2023-05-21T02:15:05.905Z,23.75
2023-05-21T02:20:11.523Z,23.80
2023-05-21T02:25:17.249Z,23.58
2023-05-21T02:30:20.788Z,25.50
2023-05-21T02:35:23.573Z,23.85
2023-05-21T02:40:27.605Z,24.42
2023-05-21T02:45:31.219Z,23.02
2023-05-21T02:50:34.049Z,24.65
2023-05-21T02:55:38.416Z,24.50
2023-05-21T03:00:41.572Z,25.00
2023-05-21T03:05:45.790Z,24.27
2023-05-21T03:10:50.292Z,24.48
2023-05-21T03:15:56.222Z,24.80
2023-05-21T03:20:59.063Z,24.38
2023-05-21T03:26:03.157Z,24.10
2023-05-21T03:31:06.468Z,23.55
2023-05-21T03:36:09.179Z,23.35
2023-05-21T03:41:13.795Z,23.50
2023-05-21T03:46:16.651Z,22.58
2023-05-21T03:51:20.339Z,23.95
2023-05-21T03:56:24.367Z,23.58
2023-05-21T04:01:28.275Z,22.98
2023-05-21T04:06:31.114Z,22.10
2023-05-21T04:11:35.119Z,22.38
2023-05-21T04:16:40.091Z,22.88
2023-05-21T04:21:45.071Z,21.23
2023-05-21T04:26:49.841Z,21.23
2023-05-21T04:31:52.573Z,20.10
2023-05-21T04:36:55.295Z,22.08
2023-05-21T04:41:59.391Z,21.92
2023-05-21T04:47:02.259Z,19.70
2023-05-21T04:52:05.403Z,20.70
2023-05-21T04:57:09.664Z,20.42
2023-05-21T05:02:12.412Z,19.15
2023-05-21T05:07:15.559Z,19.00
2023-05-21T05:12:19.690Z,19.58
2023-05-21T05:17:22.513Z,19.85
2023-05-21T05:22:25.292Z,18.08
2023-05-21T05:27:29.404Z,17.48
2023-05-21T05:32:32.100Z,18.48
2023-05-21T05:37:34.840Z,16.38
2023-05-21T05:42:39.096Z,22.75
2023-05-21T05:47:41.930Z,16.33
2023-05-21T05:52:44.687Z,18.00
2023-05-21T05:57:48.888Z,16.15
2023-05-21T06:02:51.873Z,14.70
2023-05-21T06:07:54.731Z,14.80
2023-05-21T06:12:58.819Z,14.27
2023-05-21T06:18:01.586Z,14.40
2023-05-21T06:23:04.561Z,13.35
2023-05-21T06:28:08.709Z,13.55
2023-05-21T06:33:11.658Z,13.48
2023-05-21T06:38:14.524Z,12.93
2023-05-21T06:43:18.582Z,13.43
2023-05-21T06:48:21.292Z,12.55
2023-05-21T06:53:23.996Z,12.80
2023-05-21T06:58:31.243Z,13.07
2023-05-21T07:03:34.031Z,12.65
2023-05-21T07:08:37.021Z,12.40
2023-05-21T07:13:41.052Z,12.30
2023-05-21T07:18:43.781Z,12.27
2023-05-21T07:23:46.523Z,12.38
2023-05-21T07:28:50.608Z,12.48
2023-05-21T07:33:53.335Z,11.82
2023-05-21T07:38:56.305Z,11.55
2023-05-21T07:44:01.560Z,11.43
2023-05-21T07:49:04.369Z,12.18
2023-05-21T07:54:07.088Z,11.63
2023-05-21T07:59:12.794Z,11.15
2023-05-21T08:04:16.701Z,11.10
2023-05-21T08:09:19.655Z,11.20
2023-05-21T08:14:25.715Z,11.75
2023-05-21T08:19:28.582Z,11.48
2023-05-21T08:24:31.334Z,10.88
2023-05-21T08:29:35.524Z,11.32
2023-05-21T08:34:38.264Z,9.77
2023-05-21T08:39:41.043Z,10.13
2023-05-21T08:44:52.748Z,10.52
2023-05-21T08:49:56.540Z,10.63
2023-05-21T08:54:59.466Z,10.63
2023-05-21T09:00:04.788Z,10.43
2023-05-21T09:05:09.932Z,9.43
2023-05-21T09:10:14.135Z,10.30
2023-05-21T09:15:18.573Z,10.02
2023-05-21T09:20:26.555Z,10.30
2023-05-21T09:25:29.676Z,9.18
2023-05-21T09:30:35.916Z,8.63
2023-05-21T09:35:44.997Z,9.15
2023-05-21T09:40:47.857Z,9.68
2023-05-21T09:45:57.780Z,9.23
2023-05-21T09:51:12.944Z,8.90
2023-05-21T09:56:15.699Z,9.45
2023-05-21T10:01:21.184Z,9.13
2023-05-21T10:06:27.087Z,7.60
2023-05-21T10:11:32.998Z,8.38
2023-05-21T10:16:38.240Z,7.88
2023-05-21T10:21:42.513Z,8.48
2023-05-21T10:26:47.042Z,7.97
2023-05-21T10:31:53.422Z,10.40
2023-05-21T10:36:57.100Z,10.85
2023-05-21T10:42:13.415Z,9.65
2023-05-21T10:47:48.580Z,9.23
2023-05-21T10:53:09.906Z,8.43
2023-05-21T10:58:47.932Z,6.10
2023-05-21T11:03:52.089Z,5.95
2023-05-21T11:08:55.775Z,5.70
2023-05-21T11:14:30.039Z,5.47
2023-05-21T11:19:39.552Z,4.72
2023-05-21T11:24:57.979Z,5.03
2023-05-21T11:30:21.352Z,5.00
2023-05-21T11:35:32.103Z,5.03
2023-05-21T11:40:37.250Z,4.60
2023-05-21T11:45:40.734Z,5.78
2023-05-21T11:50:46.294Z,5.85
2023-05-21T11:55:50.666Z,7.03
2023-05-21T12:00:53.727Z,6.93
2023-05-21T12:06:06.354Z,7.65
2023-05-21T12:11:09.162Z,8.05
2023-05-21T12:16:12.784Z,8.60
2023-05-21T12:21:17.743Z,8.95
2023-05-21T12:26:21.808Z,9.13
2023-05-21T12:31:27.351Z,8.10
2023-05-21T12:36:34.186Z,8.02
2023-05-21T12:41:36.954Z,8.07
2023-05-21T12:46:39.827Z,8.55
2023-05-21T12:51:46.563Z,8.35
2023-05-21T12:56:49.356Z,9.23
2023-05-21T13:01:53.956Z,9.05
2023-05-21T13:06:58.025Z,8.45
2023-05-21T13:12:00.725Z,8.63
2023-05-21T13:17:03.480Z,9.13
2023-05-21T13:22:07.767Z,8.00
2023-05-21T13:27:10.478Z,8.27
2023-05-21T13:32:13.138Z,7.90
2023-05-21T13:37:17.216Z,8.38
2023-05-21T13:42:21.053Z,8.18
2023-05-21T13:47:24.110Z,7.68
2023-05-21T13:52:28.284Z,8.18
2023-05-21T13:57:31.494Z,6.60
2023-05-21T14:02:34.668Z,6.22
2023-05-21T14:07:39.841Z,6.18
2023-05-21T14:12:42.645Z,6.60
2023-05-21T14:17:45.474Z,7.00
2023-05-21T14:22:49.579Z,6.65
2023-05-21T14:27:53.150Z,6.85
2023-05-21T14:32:57.880Z,7.18
2023-05-21T14:38:02.096Z,6.13
2023-05-21T14:43:06.404Z,5.47
2023-05-21T14:48:09.204Z,5.38
2023-05-21T14:53:13.428Z,5.00
2023-05-21T14:58:16.225Z,5.28
2023-05-21T15:03:18.981Z,5.70
2023-05-21T15:08:23.216Z,5.78
2023-05-21T15:13:27.146Z,6.05
2023-05-21T15:18:30.079Z,6.45
2023-05-21T15:23:34.118Z,6.40
2023-05-21T15:28:36.830Z,5.78
2023-05-21T15:33:39.614Z,5.68
2023-05-21T15:38:44.139Z,6.22
2023-05-21T15:43:47.356Z,5.25
2023-05-21T15:48:50.091Z,5.22
2023-05-21T15:53:54.135Z,5.03
2023-05-21T15:58:59.894Z,5.10
2023-05-21T16:04:03.424Z,5.47
2023-05-21T16:09:08.040Z,4.80
2023-05-21T16:14:10.804Z,4.93
2023-05-21T16:19:13.579Z,4.93
2023-05-21T16:24:17.725Z,5.13
2023-05-21T16:29:22.139Z,5.22
2023-05-21T16:34:25.021Z,5.20
2023-05-21T16:39:29.173Z,5.10
2023-05-21T16:44:32.287Z,4.90
2023-05-21T16:49:35.085Z,4.97
2023-05-21T16:54:39.124Z,4.70
2023-05-21T16:59:41.917Z,5.22
2023-05-21T17:04:44.771Z,5.28
2023-05-21T17:09:48.942Z,5.20
2023-05-21T17:14:52.185Z,5.35
2023-05-21T17:19:54.996Z,5.70
2023-05-21T17:24:59.291Z,5.32
2023-05-21T17:30:02.793Z,5.68
2023-05-21T17:35:06.155Z,5.25
2023-05-21T17:40:11.468Z,5.25
2023-05-21T17:45:14.172Z,5.00
2023-05-21T17:50:16.949Z,5.05
2023-05-21T17:55:21.243Z,5.35
2023-05-21T18:00:24.016Z,5.45
2023-05-21T18:05:26.779Z,6.50
2023-05-21T18:10:31.035Z,6.05
2023-05-21T18:15:34.366Z,5.78
2023-05-21T18:20:37.328Z,6.15
2023-05-21T18:25:41.619Z,5.68
2023-05-21T18:30:44.380Z,6.30
2023-05-21T18:35:47.074Z,5.43
2023-05-21T18:40:51.902Z,6.00
2023-05-21T18:45:54.720Z,5.93
2023-05-21T18:50:57.788Z,5.07
2023-05-21T18:56:02.168Z,6.82
2023-05-21T19:01:05.470Z,5.43
2023-05-21T19:06:09.816Z,6.07
2023-05-21T19:11:17.957Z,6.18
2023-05-21T19:16:24.014Z,5.35
2023-05-21T19:21:32.581Z,5.10
2023-05-21T19:26:37.719Z,5.20
2023-05-21T19:31:41.296Z,5.22
2023-05-21T19:36:53.053Z,5.40
2023-05-21T19:41:57.999Z,6.43
2023-05-21T19:47:01.381Z,5.38
2023-05-21T19:52:04.283Z,5.38
2023-05-21T19:57:10.249Z,4.43
2023-05-21T20:02:17.002Z,4.82
2023-05-21T20:07:19.807Z,5.40
2023-05-21T20:12:23.846Z,5.22
2023-05-21T20:17:28.477Z,5.15
2023-05-21T20:22:31.842Z,4.93
2023-05-21T20:27:38.544Z,4.93
2023-05-21T20:32:41.389Z,5.40
2023-05-21T20:37:44.206Z,4.80
2023-05-21T20:42:50.306Z,5.47
2023-05-21T20:47:53.540Z,4.80
2023-05-21T20:52:58.018Z,5.45
2023-05-21T20:58:02.599Z,5.32
2023-05-21T21:03:05.798Z,5.03
2023-05-21T21:08:08.591Z,5.40
2023-05-21T21:13:12.640Z,4.97
2023-05-21T21:18:16.181Z,5.57
2023-05-21T21:23:18.943Z,5.32
2023-05-21T21:28:22.971Z,5.82
2023-05-21T21:33:26.761Z,6.65
2023-05-21T21:38:29.770Z,5.70
2023-05-21T21:43:33.850Z,5.78
2023-05-21T21:48:39.670Z,5.20
2023-05-21T21:53:42.380Z,5.88
2023-05-21T21:58:47.184Z,5.22
2023-05-21T22:03:49.880Z,5.65
2023-05-21T22:08:52.619Z,5.90
2023-05-21T22:13:57.266Z,5.53
2023-05-21T22:18:59.984Z,5.55
2023-05-21T22:24:02.705Z,5.68
2023-05-21T22:29:06.715Z,5.75
2023-05-21T22:34:09.734Z,5.85
2023-05-21T22:39:12.459Z,5.15
2023-05-21T22:44:16.631Z,5.43
2023-05-21T22:49:19.848Z,5.72
2023-05-21T22:54:22.788Z,6.05
2023-05-21T22:59:26.920Z,6.13
2023-05-21T23:04:43.149Z,6.50
2023-05-21T23:09:47.029Z,6.55
2023-05-21T23:14:51.131Z,6.93
2023-05-21T23:19:53.859Z,7.45
2023-05-21T23:24:56.574Z,8.00
2023-05-21T23:30:02.832Z,7.97
2023-05-21T23:35:06.187Z,8.18
2023-05-21T23:40:09.985Z,7.47
2023-05-21T23:45:14.170Z,8.80
2023-05-21T23:50:17.032Z,7.55
2023-05-21T23:55:19.735Z,7.80
